createdAt,value
2023-02-26T00:00:55.246Z,95.32
2023-02-26T00:01:55.240Z,95.32
2023-02-26T00:02:55.277Z,95.32
2023-02-26T00:03:55.202Z,95.43
2023-02-26T00:04:55.213Z,95.43
2023-02-26T00:05:55.171Z,95.53
2023-02-26T00:06:55.847Z,95.53
2023-02-26T00:07:55.155Z,95.64
2023-02-26T00:08:55.196Z,95.64
2023-02-26T00:09:55.162Z,95.53
2023-02-26T00:10:55.130Z,95.53
2023-02-26T00:11:55.123Z,95.43
2023-02-26T00:12:55.144Z,95.32
2023-02-26T00:13:55.105Z,95.32
2023-02-26T00:14:55.116Z,95.32
2023-02-26T00:15:55.061Z,95.32
2023-02-26T00:16:55.129Z,95.43
2023-02-26T00:17:56.874Z,95.32
2023-02-26T00:18:55.066Z,95.32
2023-02-26T00:19:55.046Z,95.32
2023-02-26T00:20:55.017Z,95.32
2023-02-26T00:21:55.010Z,95.32
2023-02-26T00:22:54.989Z,95.21
2023-02-26T00:23:54.981Z,95.32
2023-02-26T00:24:55.010Z,95.32
2023-02-26T00:25:54.975Z,95.32
2023-02-26T00:26:54.946Z,95.32
2023-02-26T00:27:54.946Z,95.32
2023-02-26T00:28:54.945Z,95.21
2023-02-26T00:29:54.946Z,95.26
2023-02-26T00:30:54.920Z,95.26
2023-02-26T00:31:54.984Z,95.26
2023-02-26T00:32:54.874Z,95.47
2023-02-26T00:33:54.878Z,95.47
2023-02-26T00:34:54.894Z,95.47
2023-02-26T00:35:54.857Z,95.47
2023-02-26T00:36:54.869Z,95.57
2023-02-26T00:37:54.840Z,95.57
2023-02-26T00:38:54.844Z,95.57
2023-02-26T00:39:54.820Z,95.57
2023-02-26T00:40:54.837Z,95.57
2023-02-26T00:41:54.777Z,95.57
2023-02-26T00:42:54.814Z,95.57
2023-02-26T00:43:54.785Z,95.57
2023-02-26T00:44:54.835Z,95.57
2023-02-26T00:45:54.778Z,95.57
2023-02-26T00:46:54.764Z,95.72
2023-02-26T00:47:54.726Z,95.72
2023-02-26T00:48:54.761Z,95.72
2023-02-26T00:49:54.720Z,95.83
2023-02-26T00:50:54.712Z,95.72
2023-02-26T00:51:54.681Z,95.72
2023-02-26T00:52:54.712Z,95.72
2023-02-26T00:53:54.658Z,95.72
2023-02-26T00:54:54.702Z,95.83
2023-02-26T00:55:54.635Z,95.83
2023-02-26T00:56:54.648Z,95.83
2023-02-26T00:57:54.617Z,95.83
2023-02-26T00:58:54.621Z,95.72
2023-02-26T00:59:54.619Z,95.83
2023-02-26T01:00:54.616Z,95.83
2023-02-26T01:01:54.593Z,95.98
2023-02-26T01:02:54.584Z,96.08
2023-02-26T01:03:54.595Z,96.08
2023-02-26T01:04:54.567Z,96.08
2023-02-26T01:05:54.541Z,96.08
2023-02-26T01:06:54.529Z,96.08
2023-02-26T01:07:54.503Z,96.08
2023-02-26T01:08:54.514Z,96.08
2023-02-26T01:09:54.496Z,96.08
2023-02-26T01:10:54.493Z,96.19
2023-02-26T01:11:54.492Z,96.19
2023-02-26T01:12:54.440Z,96.19
2023-02-26T01:13:54.452Z,96.29
2023-02-26T01:14:54.442Z,96.29
2023-02-26T01:15:54.498Z,96.29
2023-02-26T01:16:54.426Z,96.29
2023-02-26T01:17:54.402Z,96.39
2023-02-26T01:18:54.404Z,96.50
2023-02-26T01:19:54.429Z,96.50
2023-02-26T01:20:54.365Z,96.50
2023-02-26T01:21:54.357Z,96.50
2023-02-26T01:22:54.343Z,96.50
2023-02-26T01:23:54.348Z,96.61
2023-02-26T01:24:54.330Z,96.71
2023-02-26T01:25:54.325Z,96.61
2023-02-26T01:26:54.294Z,96.61
2023-02-26T01:27:54.298Z,96.61
2023-02-26T01:28:54.280Z,96.50
2023-02-26T01:29:54.334Z,96.50
2023-02-26T01:30:54.379Z,96.50
2023-02-26T01:31:54.568Z,96.61
2023-02-26T01:32:54.230Z,96.61
2023-02-26T01:33:54.270Z,96.61
2023-02-26T01:34:54.237Z,96.61
2023-02-26T01:35:54.257Z,96.61
2023-02-26T01:36:54.245Z,96.61
2023-02-26T01:37:54.199Z,96.61
2023-02-26T01:38:54.164Z,96.56
2023-02-26T01:39:54.216Z,96.56
2023-02-26T01:40:54.146Z,96.56
2023-02-26T01:41:54.168Z,96.56
2023-02-26T01:42:54.140Z,96.45
2023-02-26T01:43:54.131Z,96.45
2023-02-26T01:44:54.123Z,96.35
2023-02-26T01:45:54.186Z,96.25
2023-02-26T01:46:54.097Z,96.20
2023-02-26T01:47:54.109Z,96.10
2023-02-26T01:48:54.063Z,95.99
2023-02-26T01:49:54.081Z,95.99
2023-02-26T01:50:54.038Z,95.89
2023-02-26T01:51:54.067Z,95.78
2023-02-26T01:52:54.020Z,95.78
2023-02-26T01:53:54.029Z,95.68
2023-02-26T01:54:54.012Z,95.68
2023-02-26T01:55:54.013Z,95.68
2023-02-26T01:56:54.004Z,95.68
2023-02-26T01:57:53.964Z,95.57
2023-02-26T01:58:53.950Z,95.57
2023-02-26T01:59:54.004Z,95.47
2023-02-26T02:00:53.930Z,95.47
2023-02-26T02:01:53.962Z,95.37
2023-02-26T02:02:54.107Z,95.37
2023-02-26T02:03:53.921Z,95.37
2023-02-26T02:04:53.928Z,95.37
2023-02-26T02:05:53.916Z,95.37
2023-02-26T02:06:53.878Z,95.26
2023-02-26T02:07:53.869Z,95.37
2023-02-26T02:08:53.849Z,95.37
2023-02-26T02:09:53.898Z,95.47
2023-02-26T02:10:53.826Z,95.47
2023-02-26T02:11:53.820Z,95.51
2023-02-26T02:12:53.794Z,95.57
2023-02-26T02:13:53.804Z,95.57
2023-02-26T02:14:53.806Z,95.57
2023-02-26T02:15:53.768Z,95.47
2023-02-26T02:16:53.788Z,95.57
2023-02-26T02:17:53.740Z,95.47
2023-02-26T02:18:53.741Z,95.57
2023-02-26T02:19:53.733Z,95.57
2023-02-26T02:20:53.726Z,95.57
2023-02-26T02:21:53.745Z,95.57
2023-02-26T02:22:53.699Z,95.47
2023-02-26T02:23:53.684Z,95.47
2023-02-26T02:24:53.700Z,95.37
2023-02-26T02:25:53.656Z,95.37
2023-02-26T02:26:53.659Z,95.37
2023-02-26T02:27:53.664Z,95.41
2023-02-26T02:28:53.638Z,95.41
2023-02-26T02:29:53.656Z,95.51
2023-02-26T02:30:53.671Z,95.41
2023-02-26T02:31:53.791Z,95.41
2023-02-26T02:32:53.633Z,95.41
2023-02-26T02:33:53.560Z,95.41
2023-02-26T02:34:53.613Z,95.51
2023-02-26T02:35:53.546Z,95.51
2023-02-26T02:36:53.585Z,95.51
2023-02-26T02:37:53.516Z,95.51
2023-02-26T02:38:53.579Z,95.51
2023-02-26T02:39:53.508Z,95.62
2023-02-26T02:40:53.501Z,95.62
2023-02-26T02:41:53.502Z,95.72
2023-02-26T02:42:53.468Z,95.76
2023-02-26T02:43:53.488Z,95.76
2023-02-26T02:44:53.446Z,95.76
2023-02-26T02:45:54.226Z,95.87
2023-02-26T02:46:53.511Z,95.87
2023-02-26T02:47:53.405Z,95.98
2023-02-26T02:48:53.395Z,95.98
2023-02-26T02:49:53.395Z,95.98
2023-02-26T02:50:53.384Z,96.04
2023-02-26T02:51:53.360Z,96.08
2023-02-26T02:52:53.348Z,96.19
2023-02-26T02:53:53.339Z,96.19
2023-02-26T02:54:53.334Z,96.19
2023-02-26T02:55:53.340Z,96.08
2023-02-26T02:56:53.312Z,95.98
2023-02-26T02:57:53.300Z,95.98
2023-02-26T02:58:53.294Z,95.98
2023-02-26T02:59:53.281Z,95.98
2023-02-26T03:00:53.313Z,95.98
2023-02-26T03:01:53.257Z,96.08
2023-02-26T03:02:53.310Z,96.19
2023-02-26T03:03:53.235Z,96.23
2023-02-26T03:04:53.220Z,96.23
2023-02-26T03:05:53.235Z,96.23
2023-02-26T03:06:53.210Z,96.33
2023-02-26T03:07:53.194Z,96.23
2023-02-26T03:08:53.175Z,96.23
2023-02-26T03:09:53.173Z,96.23
2023-02-26T03:10:53.173Z,96.33
2023-02-26T03:11:53.145Z,96.33
2023-02-26T03:12:53.125Z,96.33
2023-02-26T03:13:53.127Z,96.33
2023-02-26T03:14:53.115Z,96.44
2023-02-26T03:15:53.116Z,96.44
2023-02-26T03:16:53.758Z,96.55
2023-02-26T03:17:53.172Z,96.55
2023-02-26T03:18:53.073Z,96.65
2023-02-26T03:19:53.082Z,96.65
2023-02-26T03:20:53.069Z,96.65
2023-02-26T03:21:53.046Z,96.75
2023-02-26T03:22:53.144Z,96.75
2023-02-26T03:23:53.021Z,96.75
2023-02-26T03:24:53.017Z,96.75
2023-02-26T03:25:53.030Z,96.75
2023-02-26T03:26:52.997Z,96.75
2023-02-26T03:27:52.977Z,96.75
2023-02-26T03:28:52.979Z,96.75
2023-02-26T03:29:52.957Z,96.86
2023-02-26T03:30:52.970Z,96.86
2023-02-26T03:31:53.046Z,96.86
2023-02-26T03:32:52.941Z,96.86
2023-02-26T03:33:52.936Z,96.86
2023-02-26T03:34:52.900Z,96.86
2023-02-26T03:35:52.912Z,96.86
2023-02-26T03:36:52.890Z,96.86
2023-02-26T03:37:52.870Z,96.86
2023-02-26T03:38:52.859Z,96.86
2023-02-26T03:39:52.844Z,96.96
2023-02-26T03:40:52.848Z,96.96
2023-02-26T03:41:52.829Z,96.96
2023-02-26T03:42:52.812Z,96.96
2023-02-26T03:43:52.801Z,96.96
2023-02-26T03:44:52.801Z,96.96
2023-02-26T03:45:52.807Z,96.96
2023-02-26T03:46:52.780Z,96.96
2023-02-26T03:47:52.763Z,96.96
2023-02-26T03:48:52.777Z,96.96
2023-02-26T03:49:52.742Z,97.00
2023-02-26T03:50:52.747Z,97.00
2023-02-26T03:51:52.717Z,96.90
2023-02-26T03:52:52.710Z,96.90
2023-02-26T03:53:52.695Z,97.00
2023-02-26T03:54:53.459Z,97.00
2023-02-26T03:55:52.687Z,96.90
2023-02-26T03:56:52.662Z,96.90
2023-02-26T03:57:52.649Z,96.90
2023-02-26T03:58:52.637Z,96.90
2023-02-26T03:59:52.621Z,96.90
2023-02-26T04:00:52.641Z,96.90
2023-02-26T04:01:52.611Z,96.90
2023-02-26T04:02:52.596Z,96.80
2023-02-26T04:03:52.660Z,96.80
2023-02-26T04:04:52.576Z,96.80
2023-02-26T04:05:52.583Z,96.80
2023-02-26T04:06:52.552Z,96.80
2023-02-26T04:07:52.533Z,96.80
2023-02-26T04:08:52.524Z,96.80
2023-02-26T04:09:52.522Z,96.69
2023-02-26T04:10:52.519Z,96.69
2023-02-26T04:11:52.519Z,96.69
2023-02-26T04:12:52.485Z,96.69
2023-02-26T04:13:52.492Z,96.69
2023-02-26T04:14:52.476Z,96.69
2023-02-26T04:15:52.466Z,96.69
2023-02-26T04:16:52.460Z,96.59
2023-02-26T04:17:52.428Z,96.59
2023-02-26T04:18:52.424Z,96.48
2023-02-26T04:19:52.421Z,96.48
2023-02-26T04:20:52.421Z,96.48
2023-02-26T04:21:52.395Z,96.48
2023-02-26T04:22:52.389Z,96.48
2023-02-26T04:23:52.372Z,96.48
2023-02-26T04:24:52.354Z,96.37
2023-02-26T04:25:52.362Z,96.27
2023-02-26T04:26:52.326Z,96.27
2023-02-26T04:27:52.326Z,96.27
2023-02-26T04:28:52.313Z,96.17
2023-02-26T04:29:52.308Z,96.06
2023-02-26T04:30:52.545Z,96.06
2023-02-26T04:31:52.381Z,95.96
2023-02-26T04:32:52.273Z,95.96
2023-02-26T04:33:52.259Z,95.96
2023-02-26T04:34:52.242Z,95.96
2023-02-26T04:35:52.251Z,95.96
2023-02-26T04:36:52.257Z,95.96
2023-02-26T04:37:52.207Z,95.96
2023-02-26T04:38:52.203Z,95.96
2023-02-26T04:39:52.182Z,95.96
2023-02-26T04:40:52.193Z,95.96
2023-02-26T04:41:52.166Z,95.96
2023-02-26T04:42:52.155Z,95.86
2023-02-26T04:43:52.146Z,95.96
2023-02-26T04:44:52.139Z,95.96
2023-02-26T04:45:52.230Z,95.96
2023-02-26T04:46:52.112Z,95.86
2023-02-26T04:47:52.097Z,95.75
2023-02-26T04:48:52.092Z,95.75
2023-02-26T04:49:52.074Z,95.75
2023-02-26T04:50:52.080Z,95.75
2023-02-26T04:51:52.078Z,95.75
2023-02-26T04:52:52.047Z,95.75
2023-02-26T04:53:52.038Z,95.75
2023-02-26T04:54:52.019Z,95.75
2023-02-26T04:55:52.553Z,95.75
2023-02-26T04:56:52.005Z,95.75
2023-02-26T04:57:51.992Z,95.75
2023-02-26T04:58:51.976Z,95.64
2023-02-26T04:59:51.961Z,95.75
2023-02-26T05:00:51.970Z,95.68
2023-02-26T05:01:52.059Z,95.68
2023-02-26T05:02:51.943Z,95.68
2023-02-26T05:03:51.928Z,95.79
2023-02-26T05:04:51.970Z,95.79
2023-02-26T05:05:51.916Z,95.90
2023-02-26T05:06:51.906Z,95.90
2023-02-26T05:07:51.878Z,95.90
2023-02-26T05:08:51.868Z,96.00
2023-02-26T05:09:51.862Z,96.00
2023-02-26T05:10:51.872Z,96.00
2023-02-26T05:11:51.841Z,96.00
2023-02-26T05:12:51.829Z,96.00
2023-02-26T05:13:51.824Z,96.00
2023-02-26T05:14:51.810Z,96.00
2023-02-26T05:15:51.845Z,96.00
2023-02-26T05:16:51.801Z,96.00
2023-02-26T05:17:51.777Z,96.11
2023-02-26T05:18:51.769Z,96.11
2023-02-26T05:19:51.764Z,96.11
2023-02-26T05:20:51.738Z,96.21
2023-02-26T05:21:51.745Z,96.21
2023-02-26T05:22:51.740Z,96.11
2023-02-26T05:23:51.718Z,96.11
2023-02-26T05:24:51.701Z,96.11
2023-02-26T05:25:51.704Z,96.00
2023-02-26T05:26:51.727Z,96.00
2023-02-26T05:27:51.664Z,96.00
2023-02-26T05:28:51.658Z,96.00
2023-02-26T05:29:51.642Z,96.00
2023-02-26T05:30:51.700Z,96.00
2023-02-26T05:31:51.767Z,96.00
2023-02-26T05:32:51.620Z,96.00
2023-02-26T05:33:51.594Z,96.11
2023-02-26T05:34:51.602Z,96.11
2023-02-26T05:35:51.571Z,96.11
2023-02-26T05:36:59.614Z,96.11
2023-02-26T05:37:51.557Z,96.11
2023-02-26T05:38:51.549Z,96.11
2023-02-26T05:39:51.533Z,96.21
2023-02-26T05:40:51.526Z,96.21
2023-02-26T05:41:51.532Z,96.21
2023-02-26T05:42:51.502Z,96.31
2023-02-26T05:43:51.496Z,96.31
2023-02-26T05:44:51.486Z,96.31
2023-02-26T05:45:51.475Z,96.42
2023-02-26T05:46:51.513Z,96.42
2023-02-26T05:47:51.460Z,96.42
2023-02-26T05:48:51.445Z,96.31
2023-02-26T05:49:51.423Z,96.31
2023-02-26T05:50:51.425Z,96.21
2023-02-26T05:51:51.434Z,96.21
2023-02-26T05:52:51.402Z,96.11
2023-02-26T05:53:51.400Z,96.11
2023-02-26T05:54:51.378Z,96.11
2023-02-26T05:55:51.363Z,96.11
2023-02-26T05:56:51.370Z,96.11
2023-02-26T05:57:51.347Z,96.04
2023-02-26T05:58:51.330Z,96.00
2023-02-26T05:59:51.327Z,96.04
2023-02-26T06:00:51.322Z,96.00
2023-02-26T06:01:51.364Z,96.04
2023-02-26T06:02:51.339Z,96.04
2023-02-26T06:03:51.272Z,96.04
2023-02-26T06:04:51.273Z,96.04
2023-02-26T06:05:51.245Z,95.94
2023-02-26T06:06:51.253Z,96.04
2023-02-26T06:07:51.262Z,95.94
2023-02-26T06:08:51.216Z,96.04
2023-02-26T06:09:51.208Z,95.94
2023-02-26T06:10:51.205Z,96.04
2023-02-26T06:11:51.205Z,96.04
2023-02-26T06:12:51.173Z,96.04
2023-02-26T06:13:51.174Z,96.04
2023-02-26T06:14:51.150Z,96.04
2023-02-26T06:15:51.144Z,96.04
2023-02-26T06:16:51.153Z,96.04
2023-02-26T06:17:51.124Z,96.04
2023-02-26T06:18:51.108Z,96.04
2023-02-26T06:19:51.089Z,96.04
2023-02-26T06:20:51.100Z,96.04
2023-02-26T06:21:51.099Z,96.04
2023-02-26T06:22:51.059Z,96.04
2023-02-26T06:23:51.052Z,96.04
2023-02-26T06:24:51.055Z,96.04
2023-02-26T06:25:51.042Z,96.04
2023-02-26T06:26:51.053Z,95.94
2023-02-26T06:27:51.042Z,95.94
2023-02-26T06:28:50.999Z,96.04
2023-02-26T06:29:50.993Z,95.94
2023-02-26T06:30:51.031Z,96.04
2023-02-26T06:31:51.197Z,96.09
2023-02-26T06:32:50.976Z,96.04
2023-02-26T06:33:50.946Z,96.15
2023-02-26T06:34:50.939Z,96.15
2023-02-26T06:35:50.921Z,96.09
2023-02-26T06:36:50.942Z,96.15
2023-02-26T06:37:50.919Z,96.15
2023-02-26T06:38:50.908Z,96.04
2023-02-26T06:39:50.914Z,95.94
2023-02-26T06:40:50.875Z,95.94
2023-02-26T06:41:50.889Z,95.84
2023-02-26T06:42:50.854Z,95.84
2023-02-26T06:43:50.843Z,95.84
2023-02-26T06:44:50.833Z,95.84
2023-02-26T06:45:50.856Z,95.84
2023-02-26T06:46:50.832Z,95.84
2023-02-26T06:47:50.800Z,95.84
2023-02-26T06:48:50.847Z,95.84
2023-02-26T06:49:50.783Z,95.84
2023-02-26T06:50:50.776Z,95.73
2023-02-26T06:51:50.771Z,95.73
2023-02-26T06:52:50.752Z,95.73
2023-02-26T06:53:50.735Z,95.62
2023-02-26T06:54:50.720Z,95.62
2023-02-26T06:55:50.712Z,95.52
2023-02-26T06:56:50.718Z,95.52
2023-02-26T06:57:50.680Z,95.42
2023-02-26T06:58:50.690Z,95.42
2023-02-26T06:59:50.674Z,95.42
2023-02-26T07:00:50.704Z,95.31
2023-02-26T07:01:50.672Z,95.21
2023-02-26T07:02:50.640Z,95.21
2023-02-26T07:03:50.621Z,95.21
2023-02-26T07:04:50.646Z,95.21
2023-02-26T07:05:50.602Z,95.21
2023-02-26T07:06:50.618Z,95.21
2023-02-26T07:07:50.576Z,95.21
2023-02-26T07:08:50.609Z,95.21
2023-02-26T07:09:50.550Z,95.21
2023-02-26T07:10:50.548Z,95.31
2023-02-26T07:11:50.567Z,95.10
2023-02-26T07:12:50.524Z,95.06
2023-02-26T07:13:50.512Z,95.17
2023-02-26T07:14:50.525Z,95.17
2023-02-26T07:15:50.501Z,95.27
2023-02-26T07:16:50.585Z,95.17
2023-02-26T07:17:50.471Z,95.12
2023-02-26T07:18:50.485Z,95.12
2023-02-26T07:19:50.450Z,95.12
2023-02-26T07:20:50.446Z,95.01
2023-02-26T07:21:50.447Z,94.91
2023-02-26T07:22:50.420Z,94.66
2023-02-26T07:23:50.409Z,94.66
2023-02-26T07:24:50.412Z,94.66
2023-02-26T07:25:50.394Z,94.66
2023-02-26T07:26:50.386Z,94.66
2023-02-26T07:27:50.363Z,94.66
2023-02-26T07:28:50.362Z,94.40
2023-02-26T07:29:50.347Z,94.40
2023-02-26T07:30:50.449Z,94.30
2023-02-26T07:31:50.520Z,94.30
2023-02-26T07:32:50.313Z,94.26
2023-02-26T07:33:50.302Z,94.15
2023-02-26T07:34:50.287Z,94.15
2023-02-26T07:35:50.285Z,94.15
2023-02-26T07:36:50.283Z,94.05
2023-02-26T07:37:50.253Z,93.95
2023-02-26T07:38:50.251Z,93.84
2023-02-26T07:39:50.230Z,93.74
2023-02-26T07:40:50.214Z,93.63
2023-02-26T07:41:50.221Z,93.52
2023-02-26T07:42:50.194Z,93.48
2023-02-26T07:43:50.178Z,93.59
2023-02-26T07:44:50.174Z,93.59
2023-02-26T07:45:50.287Z,93.52
2023-02-26T07:46:50.177Z,93.52
2023-02-26T07:47:50.143Z,93.42
2023-02-26T07:48:50.145Z,93.42
2023-02-26T07:49:50.127Z,93.52
2023-02-26T07:50:50.114Z,93.52
2023-02-26T07:51:50.118Z,93.52
2023-02-26T07:52:50.093Z,93.63
2023-02-26T07:53:50.073Z,93.63
2023-02-26T07:54:50.074Z,93.63
2023-02-26T07:55:50.087Z,93.52
2023-02-26T07:56:50.063Z,93.63
2023-02-26T07:57:50.034Z,93.63
2023-02-26T07:58:50.032Z,93.63
2023-02-26T07:59:50.013Z,93.63
2023-02-26T08:00:49.987Z,93.63
2023-02-26T08:01:50.063Z,93.63
2023-02-26T08:02:49.998Z,93.74
2023-02-26T08:03:50.002Z,93.84
2023-02-26T08:04:49.960Z,93.74
2023-02-26T08:05:49.948Z,93.74
2023-02-26T08:06:49.945Z,93.74
2023-02-26T08:07:49.916Z,93.63
2023-02-26T08:08:49.910Z,93.59
2023-02-26T08:09:49.887Z,93.48
2023-02-26T08:10:49.900Z,93.38
2023-02-26T08:11:49.896Z,93.27
2023-02-26T08:12:49.864Z,93.17
2023-02-26T08:13:49.848Z,93.17
2023-02-26T08:14:49.861Z,93.17
2023-02-26T08:15:49.880Z,93.07
2023-02-26T08:16:49.848Z,92.85
2023-02-26T08:17:49.808Z,92.85
2023-02-26T08:18:49.802Z,92.75
2023-02-26T08:19:49.787Z,92.75
2023-02-26T08:20:49.771Z,92.65
2023-02-26T08:21:50.827Z,92.40
2023-02-26T08:22:50.628Z,92.29
2023-02-26T08:23:50.695Z,92.50
2023-02-26T08:24:49.740Z,92.40
2023-02-26T08:25:49.717Z,92.40
2023-02-26T08:26:49.756Z,92.50
2023-02-26T08:27:49.702Z,92.40
2023-02-26T08:28:49.681Z,92.40
2023-02-26T08:29:49.711Z,92.40
2023-02-26T08:30:49.845Z,92.19
2023-02-26T08:31:49.767Z,91.98
2023-02-26T08:32:49.645Z,91.98
2023-02-26T08:33:49.663Z,91.72
2023-02-26T08:34:49.621Z,91.72
2023-02-26T08:35:49.611Z,91.72
2023-02-26T08:36:49.616Z,91.62
2023-02-26T08:37:49.614Z,91.72
2023-02-26T08:38:49.595Z,91.62
2023-02-26T08:39:49.585Z,91.72
2023-02-26T08:40:49.558Z,91.72
2023-02-26T08:41:49.572Z,91.83
2023-02-26T08:42:49.541Z,91.94
2023-02-26T08:43:49.536Z,92.14
2023-02-26T08:44:49.517Z,92.25
2023-02-26T08:45:49.506Z,92.25
2023-02-26T08:46:49.604Z,92.35
2023-02-26T08:47:56.647Z,92.04
2023-02-26T08:48:49.496Z,91.89
2023-02-26T08:49:49.456Z,91.69
2023-02-26T08:50:49.457Z,91.47
2023-02-26T08:51:49.491Z,91.47
2023-02-26T08:52:49.433Z,90.95
2023-02-26T08:53:49.420Z,90.70
2023-02-26T08:54:49.411Z,90.81
2023-02-26T08:55:49.407Z,90.70
2023-02-26T08:56:49.393Z,90.70
2023-02-26T08:57:49.381Z,90.18
2023-02-26T08:58:49.362Z,89.76
2023-02-26T08:59:49.364Z,89.83
2023-02-26T09:00:49.339Z,89.83
2023-02-26T09:01:49.363Z,89.83
2023-02-26T09:02:49.384Z,89.93
2023-02-26T09:03:49.320Z,89.93
2023-02-26T09:04:49.300Z,89.72
2023-02-26T09:05:49.295Z,89.51
2023-02-26T09:06:49.283Z,88.89
2023-02-26T09:07:49.294Z,88.78
2023-02-26T09:08:49.258Z,88.68
2023-02-26T09:09:49.267Z,88.68
2023-02-26T09:10:49.241Z,88.57
2023-02-26T09:11:49.230Z,88.37
2023-02-26T09:12:49.214Z,88.01
2023-02-26T09:13:49.203Z,87.70
2023-02-26T09:14:49.187Z,87.28
2023-02-26T09:15:49.170Z,87.18
2023-02-26T09:16:51.194Z,87.49
2023-02-26T09:17:49.160Z,87.39
2023-02-26T09:18:49.141Z,87.60
2023-02-26T09:19:49.227Z,87.70
2023-02-26T09:20:49.125Z,87.60
2023-02-26T09:21:49.129Z,87.39
2023-02-26T09:22:49.095Z,87.18
2023-02-26T09:23:49.089Z,86.97
2023-02-26T09:24:49.099Z,86.97
2023-02-26T09:25:49.061Z,86.76
2023-02-26T09:26:49.078Z,86.45
2023-02-26T09:27:49.047Z,86.20
2023-02-26T09:28:49.062Z,86.10
2023-02-26T09:29:49.025Z,85.99
2023-02-26T09:30:49.041Z,85.68
2023-02-26T09:31:49.191Z,85.26
2023-02-26T09:32:49.091Z,83.59
2023-02-26T09:33:48.983Z,83.56
2023-02-26T09:34:48.991Z,83.76
2023-02-26T09:35:48.956Z,82.82
2023-02-26T09:36:48.966Z,82.72
2023-02-26T09:37:48.966Z,82.72
2023-02-26T09:38:48.945Z,82.62
2023-02-26T09:39:48.916Z,81.89
2023-02-26T09:40:48.902Z,81.89
2023-02-26T09:41:48.887Z,81.99
2023-02-26T09:42:48.913Z,82.10
2023-02-26T09:43:48.873Z,81.79
2023-02-26T09:44:48.862Z,81.05
2023-02-26T09:45:48.895Z,81.68
2023-02-26T09:46:48.870Z,81.85
2023-02-26T09:47:48.843Z,81.65
2023-02-26T09:48:48.852Z,80.71
2023-02-26T09:49:48.822Z,80.71
2023-02-26T09:50:48.799Z,80.81
2023-02-26T09:51:50.180Z,80.60
2023-02-26T09:52:48.794Z,79.98
2023-02-26T09:53:48.754Z,79.98
2023-02-26T09:54:48.755Z,80.08
2023-02-26T09:55:48.735Z,79.66
2023-02-26T09:56:48.724Z,78.94
2023-02-26T09:57:48.768Z,78.94
2023-02-26T09:58:48.714Z,78.63
2023-02-26T09:59:48.706Z,78.42
2023-02-26T10:00:48.704Z,77.48
2023-02-26T10:01:48.742Z,77.75
2023-02-26T10:02:48.684Z,78.17
2023-02-26T10:03:48.681Z,77.75
2023-02-26T10:04:48.661Z,77.75
2023-02-26T10:05:48.633Z,78.28
2023-02-26T10:06:48.631Z,77.30
2023-02-26T10:07:48.635Z,77.61
2023-02-26T10:08:48.602Z,77.79
2023-02-26T10:09:48.594Z,78.31
2023-02-26T10:10:48.585Z,78.83
2023-02-26T10:11:48.566Z,78.93
2023-02-26T10:12:48.609Z,79.14
2023-02-26T10:13:57.112Z,79.55
2023-02-26T10:14:48.547Z,77.37
2023-02-26T10:15:48.538Z,77.27
2023-02-26T10:16:48.586Z,78.20
2023-02-26T10:17:48.521Z,78.00
2023-02-26T10:18:48.498Z,78.31
2023-02-26T10:19:48.481Z,78.52
2023-02-26T10:20:48.573Z,78.62
2023-02-26T10:21:48.464Z,78.93
2023-02-26T10:22:48.753Z,78.72
2023-02-26T10:23:48.452Z,79.03
2023-02-26T10:24:48.436Z,79.76
2023-02-26T10:25:48.417Z,79.62
2023-02-26T10:26:48.402Z,79.52
2023-02-26T10:27:48.449Z,79.52
2023-02-26T10:28:48.805Z,79.31
2023-02-26T10:29:48.402Z,78.86
2023-02-26T10:30:48.406Z,78.03
2023-02-26T10:31:48.414Z,78.03
2023-02-26T10:32:48.482Z,78.55
2023-02-26T10:33:48.322Z,78.55
2023-02-26T10:34:48.309Z,78.13
2023-02-26T10:35:48.300Z,78.75
2023-02-26T10:36:48.322Z,78.75
2023-02-26T10:37:48.302Z,78.55
2023-02-26T10:38:48.261Z,78.34
2023-02-26T10:39:48.296Z,78.55
2023-02-26T10:40:48.257Z,78.65
2023-02-26T10:41:48.237Z,78.03
2023-02-26T10:42:48.238Z,78.20
2023-02-26T10:43:48.259Z,78.20
2023-02-26T10:44:48.207Z,77.89
2023-02-26T10:45:48.289Z,77.75
2023-02-26T10:46:48.178Z,78.16
2023-02-26T10:47:48.195Z,77.95
2023-02-26T10:48:48.162Z,77.64
2023-02-26T10:49:48.184Z,77.85
2023-02-26T10:50:48.159Z,78.06
2023-02-26T10:51:48.123Z,78.37
2023-02-26T10:52:48.159Z,78.37
2023-02-26T10:53:48.107Z,78.41
2023-02-26T10:54:48.097Z,78.41
2023-02-26T10:55:48.255Z,78.41
2023-02-26T10:56:48.113Z,78.09
2023-02-26T10:57:48.076Z,78.72
2023-02-26T10:58:48.043Z,78.30
2023-02-26T10:59:48.054Z,78.72
2023-02-26T11:00:48.044Z,78.51
2023-02-26T11:01:48.050Z,78.37
2023-02-26T11:02:48.087Z,78.58
2023-02-26T11:03:48.003Z,78.78
2023-02-26T11:04:53.877Z,78.44
2023-02-26T11:05:47.991Z,77.92
2023-02-26T11:06:47.985Z,77.51
2023-02-26T11:07:47.965Z,76.64
2023-02-26T11:08:47.945Z,76.43
2023-02-26T11:09:47.940Z,76.54
2023-02-26T11:10:47.913Z,76.54
2023-02-26T11:11:48.662Z,76.33
2023-02-26T11:12:47.935Z,76.23
2023-02-26T11:13:47.909Z,76.02
2023-02-26T11:14:47.881Z,76.33
2023-02-26T11:15:47.934Z,76.06
2023-02-26T11:16:47.956Z,76.37
2023-02-26T11:17:47.878Z,76.47
2023-02-26T11:18:47.839Z,76.16
2023-02-26T11:19:47.839Z,76.54
2023-02-26T11:20:47.818Z,76.64
2023-02-26T11:21:47.812Z,76.23
2023-02-26T11:22:47.835Z,76.54
2023-02-26T11:23:47.774Z,77.23
2023-02-26T11:24:47.778Z,76.71
2023-02-26T11:25:47.757Z,75.26
2023-02-26T11:26:47.739Z,75.15
2023-02-26T11:27:47.752Z,74.15
2023-02-26T11:28:47.726Z,74.01
2023-02-26T11:29:47.732Z,74.74
2023-02-26T11:30:47.811Z,74.11
2023-02-26T11:31:47.818Z,74.50
2023-02-26T11:32:47.740Z,75.02
2023-02-26T11:33:47.659Z,74.81
2023-02-26T11:34:47.682Z,74.19
2023-02-26T11:35:47.651Z,74.15
2023-02-26T11:36:47.640Z,73.53
2023-02-26T11:37:47.688Z,72.53
2023-02-26T11:38:47.612Z,72.53
2023-02-26T11:39:47.613Z,72.94
2023-02-26T11:40:47.583Z,73.67
2023-02-26T11:41:47.578Z,73.57
2023-02-26T11:42:47.575Z,74.43
2023-02-26T11:43:47.561Z,74.84
2023-02-26T11:44:47.560Z,74.63
2023-02-26T11:45:47.569Z,74.81
2023-02-26T11:46:47.520Z,74.91
2023-02-26T11:47:47.544Z,74.22
2023-02-26T11:48:47.529Z,74.53
2023-02-26T11:49:47.485Z,74.84
2023-02-26T11:50:47.471Z,74.74
2023-02-26T11:51:47.506Z,74.22
2023-02-26T11:52:47.507Z,74.40
2023-02-26T11:53:47.448Z,74.60
2023-02-26T11:54:47.432Z,74.91
2023-02-26T11:55:47.429Z,74.15
2023-02-26T11:56:48.222Z,73.84
2023-02-26T11:57:55.171Z,73.63
2023-02-26T11:58:47.395Z,73.53
2023-02-26T11:59:47.394Z,73.39
2023-02-26T12:00:47.368Z,73.19
2023-02-26T12:01:47.413Z,72.77
2023-02-26T12:02:47.397Z,72.50
2023-02-26T12:03:47.461Z,72.39
2023-02-26T12:04:47.337Z,72.19
2023-02-26T12:05:47.296Z,73.22
2023-02-26T12:06:47.307Z,73.43
2023-02-26T12:07:47.335Z,73.57
2023-02-26T12:08:47.285Z,74.19
2023-02-26T12:09:47.266Z,74.91
2023-02-26T12:10:47.273Z,75.53
2023-02-26T12:11:47.254Z,75.84
2023-02-26T12:12:47.252Z,76.36
2023-02-26T12:13:47.212Z,76.67
2023-02-26T12:14:47.210Z,76.88
2023-02-26T12:15:47.238Z,77.19
2023-02-26T12:16:47.196Z,77.19
2023-02-26T12:17:47.213Z,77.09
2023-02-26T12:18:47.189Z,77.09
2023-02-26T12:19:47.159Z,77.05
2023-02-26T12:20:47.157Z,77.26
2023-02-26T12:21:47.184Z,75.81
2023-02-26T12:22:47.161Z,74.88
2023-02-26T12:23:47.151Z,74.84
2023-02-26T12:24:47.826Z,75.26
2023-02-26T12:25:47.119Z,74.84
2023-02-26T12:26:47.107Z,74.84
2023-02-26T12:27:47.148Z,74.32
2023-02-26T12:28:47.096Z,74.32
2023-02-26T12:29:47.061Z,74.02
2023-02-26T12:30:47.077Z,74.22
2023-02-26T12:31:47.180Z,74.63
2023-02-26T12:32:47.104Z,74.53
2023-02-26T12:33:47.011Z,74.02
2023-02-26T12:34:47.011Z,74.12
2023-02-26T12:35:46.995Z,73.81
2023-02-26T12:36:49.314Z,73.81
2023-02-26T12:37:46.992Z,73.91
2023-02-26T12:38:46.960Z,73.71
2023-02-26T12:39:46.968Z,73.19
2023-02-26T12:40:46.980Z,72.64
2023-02-26T12:41:46.955Z,71.08
2023-02-26T12:42:46.997Z,71.39
2023-02-26T12:43:46.907Z,71.08
2023-02-26T12:44:46.940Z,71.39
2023-02-26T12:45:46.893Z,71.81
2023-02-26T12:46:46.955Z,72.02
2023-02-26T12:47:46.893Z,72.43
2023-02-26T12:48:46.837Z,72.43
2023-02-26T12:49:46.872Z,71.81
2023-02-26T12:50:46.842Z,72.74
2023-02-26T12:51:46.840Z,72.94
2023-02-26T12:52:46.865Z,73.05